createdAt,value
2022-08-14T00:00:20.080Z,19.3
2022-08-14T00:06:00.553Z,19.3
2022-08-14T00:11:54.156Z,19.3
2022-08-14T00:17:47.673Z,19.2
2022-08-14T00:23:40.034Z,19.2
2022-08-14T00:34:35.726Z,19
2022-08-14T00:40:33.671Z,19.1
2022-08-14T00:46:32.954Z,19.2
2022-08-14T00:52:17.978Z,19.2
2022-08-14T00:57:59.787Z,19.3
2022-08-14T01:03:43.651Z,19.2
2022-08-14T01:09:33.633Z,19.1
2022-08-14T01:15:14.678Z,18.9
2022-08-14T01:20:55.387Z,18.7
2022-08-14T01:26:39.782Z,18.7
2022-08-14T01:32:22.721Z,18.7
2022-08-14T01:38:10.461Z,18.6
2022-08-14T01:43:56.208Z,18.6
2022-08-14T01:49:40.525Z,18.8
2022-08-14T01:55:42.700Z,18.9
2022-08-14T02:01:23.445Z,18.6
2022-08-14T02:07:08.667Z,18.4
2022-08-14T02:13:50.529Z,18.4
2022-08-14T02:19:32.377Z,18.2
2022-08-14T02:25:18.927Z,18.1
2022-08-14T02:30:59.240Z,18
2022-08-14T02:37:03.212Z,17.9
2022-08-14T02:42:54.041Z,17.9
2022-08-14T02:49:00.951Z,17.8
2022-08-14T02:54:50.210Z,17.8
2022-08-14T03:00:30.371Z,17.6
2022-08-14T03:06:11.692Z,17.5
2022-08-14T03:11:51.958Z,17.5
2022-08-14T03:17:40.885Z,17.4
2022-08-14T03:23:39.095Z,17.4
2022-08-14T03:29:19.610Z,17.4
2022-08-14T03:35:09.862Z,17.3
2022-08-14T03:40:50.427Z,17.1
2022-08-14T03:46:39.253Z,17.1
2022-08-14T03:52:39.360Z,17.1
2022-08-14T03:58:41.323Z,17.2
2022-08-14T04:09:23.282Z,17.1
2022-08-14T04:15:07.832Z,17.2
2022-08-14T04:20:55.062Z,17.3
2022-08-14T04:26:42.603Z,17.3
2022-08-14T04:32:57.066Z,17.5
2022-08-14T04:39:02.917Z,17.8
2022-08-14T04:44:43.465Z,17.8
2022-08-14T04:50:44.212Z,18.3
2022-08-14T04:56:34.905Z,19
2022-08-14T05:02:25.784Z,19.5
2022-08-14T05:08:31.633Z,19.9
2022-08-14T05:14:45.756Z,20.6
2022-08-14T05:21:04.682Z,20.7
2022-08-14T05:28:00.105Z,21
2022-08-14T05:33:57.198Z,21.2
2022-08-14T05:39:38.342Z,21.4
2022-08-14T05:45:22.088Z,21.4
2022-08-14T05:51:17.040Z,21.7
2022-08-14T05:56:57.907Z,21.9
2022-08-14T06:02:41.442Z,22.8
2022-08-14T06:08:31.538Z,24.1
2022-08-14T06:14:23.910Z,25.7
2022-08-14T06:20:06.948Z,27.3
2022-08-14T06:25:51.969Z,27.9
2022-08-14T06:31:35.698Z,29.5
2022-08-14T06:37:16.757Z,30.1
2022-08-14T06:42:59.968Z,30.1
2022-08-14T06:48:47.401Z,31.3
2022-08-14T06:54:31.075Z,32.2
2022-08-14T07:00:15.239Z,31.5
2022-08-14T07:06:21.320Z,30.6
2022-08-14T07:12:54.516Z,31.8
2022-08-14T07:18:50.827Z,32.4
2022-08-14T07:24:31.867Z,32
2022-08-14T07:30:33.355Z,32.6
2022-08-14T07:41:35.852Z,34.1
2022-08-14T07:47:16.606Z,34.5
2022-08-14T07:58:00.518Z,34.8
2022-08-14T08:04:34.023Z,35.1
2022-08-14T08:10:31.302Z,35.5
2022-08-14T08:21:56.741Z,34.5
2022-08-14T08:27:38.064Z,34.3
2022-08-14T08:39:14.313Z,34.2
2022-08-14T08:51:31.099Z,35.8
2022-08-14T09:02:55.184Z,35.6
2022-08-14T09:08:36.940Z,36.4
2022-08-14T09:14:18.150Z,36.9
2022-08-14T15:35:50.007Z,34.2
2022-08-14T15:41:33.625Z,34
2022-08-14T15:47:28.560Z,33.2
2022-08-14T15:53:13.593Z,33
2022-08-14T15:58:53.530Z,33.2
2022-08-14T16:04:33.736Z,33.3
2022-08-14T16:10:28.826Z,33
2022-08-14T16:16:35.106Z,33.1
2022-08-14T16:23:10.842Z,33.1
2022-08-14T16:28:56.433Z,33.3
2022-08-14T16:34:45.204Z,33.2
2022-08-14T16:40:38.950Z,32.8
2022-08-14T16:46:27.190Z,32.7
2022-08-14T16:52:25.353Z,32.5
2022-08-14T16:58:50.393Z,32.2
2022-08-14T17:04:31.776Z,31.9
2022-08-14T17:10:12.643Z,31.8
2022-08-14T17:15:52.900Z,31.7
2022-08-14T17:21:33.669Z,31.6
2022-08-14T17:27:21.031Z,31.5
2022-08-14T17:33:05.239Z,31.4
2022-08-14T17:38:59.568Z,31.2
2022-08-14T17:44:51.734Z,31.1
2022-08-14T17:50:59.061Z,31
2022-08-14T17:56:47.772Z,30.8
2022-08-14T18:02:37.240Z,30.7
2022-08-14T18:08:31.844Z,30.5
2022-08-14T18:14:48.504Z,30.4
2022-08-14T18:21:24.907Z,30.3
2022-08-14T18:27:38.938Z,30.2
2022-08-14T18:33:27.705Z,29.9
2022-08-14T18:39:30.135Z,29.7
2022-08-14T18:45:12.488Z,29.3
2022-08-14T18:51:10.254Z,29.2
2022-08-14T18:57:40.441Z,29
2022-08-14T19:03:23.944Z,28.7
2022-08-14T19:09:11.261Z,28.4
2022-08-14T19:14:57.578Z,28.1
2022-08-14T19:20:45.618Z,27.9
2022-08-14T19:26:34.465Z,27.8
2022-08-14T19:32:40.950Z,27.8
2022-08-14T19:38:31.917Z,27.6
2022-08-14T19:44:20.802Z,27.5
2022-08-14T19:50:24.842Z,27.5
2022-08-14T19:56:28.855Z,27.5
2022-08-14T20:02:13.173Z,27.5
2022-08-14T20:09:06.708Z,27.5
2022-08-14T20:18:48.921Z,27.8
2022-08-14T20:24:40.758Z,27.4
2022-08-14T20:30:33.316Z,27.1
2022-08-14T20:42:09.805Z,27
2022-08-14T20:47:53.668Z,27
2022-08-14T20:53:34.309Z,26.9
2022-08-14T20:59:30.187Z,26.9
2022-08-14T21:06:16.100Z,26.9
2022-08-14T21:36:43.423Z,27.8
2022-08-14T21:42:23.194Z,26.9
2022-08-14T21:48:11.250Z,26.6
2022-08-14T21:53:54.061Z,26.3
2022-08-14T21:59:45.677Z,26.2
2022-08-14T22:05:26.333Z,26
2022-08-14T22:11:10.324Z,26
2022-08-14T22:17:00.516Z,26
2022-08-14T22:22:57.578Z,25.9
2022-08-14T22:28:37.637Z,25.9
2022-08-14T22:34:35.998Z,25.9
2022-08-14T22:40:46.764Z,25.9
2022-08-14T22:47:40.263Z,26
2022-08-14T22:53:24.430Z,25.8
2022-08-14T22:59:14.798Z,25.6
2022-08-14T23:04:55.863Z,25.5
2022-08-14T23:10:46.487Z,25.4
2022-08-14T23:16:30.740Z,25.4
2022-08-14T23:22:10.871Z,25.3
2022-08-14T23:28:02.803Z,25.3
2022-08-14T23:34:41.182Z,25.3
2022-08-14T23:40:34.834Z,25.2
2022-08-14T23:46:15.115Z,25.1
2022-08-14T23:51:59.900Z,25
2022-08-14T23:59:08.155Z,25.1
